sensor_id;sensor_type;location;lat;lon;timestamp;noise_LAeq;noise_LA_min;noise_LA_max;noise_LA01;noise_LA95
71020;Laerm;58902;51.436;5.980;2023-02-28T00:00:08;40.81;29.23;52.95;;
71020;Laerm;58902;51.436;5.980;2023-02-28T00:00:20;30.01;28.84;32.00;;
71020;Laerm;58902;51.436;5.980;2023-02-28T00:00:31;30.14;28.85;32.34;;
71020;Laerm;58902;51.436;5.980;2023-02-28T00:00:41;30.82;29.25;32.62;;
71020;Laerm;58902;51.436;5.980;2023-02-28T00:00:53;32.42;30.55;34.85;;
71020;Laerm;58902;51.436;5.980;2023-02-28T00:01:03;33.42;32.02;35.71;;
71020;Laerm;58902;51.436;5.980;2023-02-28T00:01:14;33.25;31.59;34.96;;
71020;Laerm;58902;51.436;5.980;2023-02-28T00:01:25;33.15;31.69;34.68;;
71020;Laerm;58902;51.436;5.980;2023-02-28T00:01:36;33.26;31.23;34.94;;
71020;Laerm;58902;51.436;5.980;2023-02-28T00:01:46;33.35;31.18;35.35;;
71020;Laerm;58902;51.436;5.980;2023-02-28T00:01:57;33.14;31.67;34.82;;
71020;Laerm;58902;51.436;5.980;2023-02-28T00:02:07;33.11;31.37;34.69;;
71020;Laerm;58902;51.436;5.980;2023-02-28T00:02:17;33.13;31.08;34.95;;
71020;Laerm;58902;51.436;5.980;2023-02-28T00:02:28;33.11;30.86;38.34;;
71020;Laerm;58902;51.436;5.980;2023-02-28T00:02:39;31.86;30.06;33.83;;
71020;Laerm;58902;51.436;5.980;2023-02-28T00:02:50;32.54;31.09;33.91;;
71020;Laerm;58902;51.436;5.980;2023-02-28T00:03:00;32.75;31.42;34.04;;
71020;Laerm;58902;51.436;5.980;2023-02-28T00:03:10;32.68;30.06;34.36;;
71020;Laerm;58902;51.436;5.980;2023-02-28T00:03:21;33.16;31.78;34.68;;
71020;Laerm;58902;51.436;5.980;2023-02-28T00:03:32;33.18;31.58;34.64;;
71020;Laerm;58902;51.436;5.980;2023-02-28T00:03:45;32.14;30.64;34.30;;
71020;Laerm;58902;51.436;5.980;2023-02-28T00:03:55;31.94;30.71;32.83;;
71020;Laerm;58902;51.436;5.980;2023-02-28T00:04:06;31.83;29.63;33.64;;
71020;Laerm;58902;51.436;5.980;2023-02-28T00:04:19;31.00;29.56;32.46;;
71020;Laerm;58902;51.436;5.980;2023-02-28T00:04:29;31.07;29.49;34.07;;
71020;Laerm;58902;51.436;5.980;2023-02-28T00:04:40;32.47;29.35;34.86;;
71020;Laerm;58902;51.436;5.980;2023-02-28T00:04:50;34.14;31.56;35.66;;
71020;Laerm;58902;51.436;5.980;2023-02-28T00:05:03;33.20;31.61;35.39;;
71020;Laerm;58902;51.436;5.980;2023-02-28T00:05:15;33.63;30.37;39.90;;
71020;Laerm;58902;51.436;5.980;2023-02-28T00:05:26;31.84;30.32;34.84;;
71020;Laerm;58902;51.436;5.980;2023-02-28T00:05:37;31.39;30.06;33.56;;
71020;Laerm;58902;51.436;5.980;2023-02-28T00:05:47;31.24;29.81;33.89;;
71020;Laerm;58902;51.436;5.980;2023-02-28T00:05:58;31.56;30.01;34.10;;
71020;Laerm;58902;51.436;5.980;2023-02-28T00:06:08;31.76;30.30;34.11;;
71020;Laerm;58902;51.436;5.980;2023-02-28T00:06:22;31.68;30.44;33.53;;
71020;Laerm;58902;51.436;5.980;2023-02-28T00:06:34;32.32;30.93;34.22;;
71020;Laerm;58902;51.436;5.980;2023-02-28T00:06:44;32.24;30.15;33.67;;
71020;Laerm;58902;51.436;5.980;2023-02-28T00:06:54;32.37;29.86;34.45;;
71020;Laerm;58902;51.436;5.980;2023-02-28T00:07:05;32.71;29.91;36.75;;
71020;Laerm;58902;51.436;5.980;2023-02-28T00:07:15;33.30;32.00;34.82;;
71020;Laerm;58902;51.436;5.980;2023-02-28T00:07:26;33.69;32.19;36.69;;
71020;Laerm;58902;51.436;5.980;2023-02-28T00:07:37;34.95;31.60;39.62;;
71020;Laerm;58902;51.436;5.980;2023-02-28T00:07:48;34.42;31.53;37.39;;
71020;Laerm;58902;51.436;5.980;2023-02-28T00:07:59;33.79;31.98;37.99;;
71020;Laerm;58902;51.436;5.980;2023-02-28T00:08:09;34.26;30.18;40.53;;
71020;Laerm;58902;51.436;5.980;2023-02-28T00:08:20;35.08;30.47;42.75;;
71020;Laerm;58902;51.436;5.980;2023-02-28T00:08:30;33.68;30.16;39.41;;
71020;Laerm;58902;51.436;5.980;2023-02-28T00:08:40;31.83;29.46;40.98;;
71020;Laerm;58902;51.436;5.980;2023-02-28T00:08:54;31.03;29.53;34.46;;
71020;Laerm;58902;51.436;5.980;2023-02-28T00:09:04;30.76;29.28;32.36;;
71020;Laerm;58902;51.436;5.980;2023-02-28T00:09:15;30.95;29.53;33.10;;
71020;Laerm;58902;51.436;5.980;2023-02-28T00:09:25;31.03;29.46;32.70;;
71020;Laerm;58902;51.436;5.980;2023-02-28T00:09:36;30.74;29.33;32.93;;
71020;Laerm;58902;51.436;5.980;2023-02-28T00:09:46;30.33;29.12;31.85;;
71020;Laerm;58902;51.436;5.980;2023-02-28T00:09:56;30.88;29.34;34.24;;
71020;Laerm;58902;51.436;5.980;2023-02-28T00:10:08;31.99;29.74;37.84;;
71020;Laerm;58902;51.436;5.980;2023-02-28T00:10:19;31.34;29.08;37.70;;
71020;Laerm;58902;51.436;5.980;2023-02-28T00:10:31;30.48;29.32;31.77;;
71020;Laerm;58902;51.436;5.980;2023-02-28T00:10:41;30.62;29.03;35.09;;
71020;Laerm;58902;51.436;5.980;2023-02-28T00:10:52;30.20;29.03;31.77;;
71020;Laerm;58902;51.436;5.980;2023-02-28T00:11:03;30.35;29.06;33.06;;
71020;Laerm;58902;51.436;5.980;2023-02-28T00:11:14;30.84;29.45;37.95;;
71020;Laerm;58902;51.436;5.980;2023-02-28T00:11:24;30.57;29.21;32.88;;
71020;Laerm;58902;51.436;5.980;2023-02-28T00:11:35;30.79;29.56;32.25;;
71020;Laerm;58902;51.436;5.980;2023-02-28T00:11:47;31.43;29.40;34.22;;
71020;Laerm;58902;51.436;5.980;2023-02-28T00:11:58;32.36;29.42;35.58;;
71020;Laerm;58902;51.436;5.980;2023-02-28T00:12:08;35.03;33.47;36.23;;
71020;Laerm;58902;51.436;5.980;2023-02-28T00:12:20;34.83;33.79;36.02;;
71020;Laerm;58902;51.436;5.980;2023-02-28T00:12:30;33.11;30.41;35.45;;
71020;Laerm;58902;51.436;5.980;2023-02-28T00:12:41;32.61;30.92;34.19;;
71020;Laerm;58902;51.436;5.980;2023-02-28T00:12:52;41.93;31.89;45.45;;
71020;Laerm;58902;51.436;5.980;2023-02-28T00:13:03;39.46;34.87;45.95;;
71020;Laerm;58902;51.436;5.980;2023-02-28T00:13:15;36.69;33.71;43.42;;
71020;Laerm;58902;51.436;5.980;2023-02-28T00:13:25;37.10;34.76;40.23;;
71020;Laerm;58902;51.436;5.980;2023-02-28T00:13:36;70.39;37.08;78.48;;
71020;Laerm;58902;51.436;5.980;2023-02-28T00:13:50;72.40;68.52;76.02;;
71020;Laerm;58902;51.436;5.980;2023-02-28T00:14:00;65.09;44.54;71.51;;
71020;Laerm;58902;51.436;5.980;2023-02-28T00:14:11;43.30;38.81;48.15;;
71020;Laerm;58902;51.436;5.980;2023-02-28T00:14:21;40.10;37.34;44.43;;
71020;Laerm;58902;51.436;5.980;2023-02-28T00:14:31;38.88;35.06;42.59;;
71020;Laerm;58902;51.436;5.980;2023-02-28T00:14:42;37.82;35.34;40.73;;
71020;Laerm;58902;51.436;5.980;2023-02-28T00:14:52;36.99;34.02;39.81;;
71020;Laerm;58902;51.436;5.980;2023-02-28T00:15:06;35.82;33.64;38.22;;
71020;Laerm;58902;51.436;5.980;2023-02-28T00:15:16;33.89;31.30;39.26;;
71020;Laerm;58902;51.436;5.980;2023-02-28T00:15:27;32.75;31.09;34.69;;
71020;Laerm;58902;51.436;5.980;2023-02-28T00:15:37;32.40;30.50;33.81;;
71020;Laerm;58902;51.436;5.980;2023-02-28T00:15:57;32.25;30.55;34.29;;
71020;Laerm;58902;51.436;5.980;2023-02-28T00:16:09;32.06;30.26;39.13;;
71020;Laerm;58902;51.436;5.980;2023-02-28T00:16:20;31.85;30.16;36.86;;
71020;Laerm;58902;51.436;5.980;2023-02-28T00:16:31;31.69;29.89;33.22;;
71020;Laerm;58902;51.436;5.980;2023-02-28T00:16:42;32.79;31.46;33.94;;
71020;Laerm;58902;51.436;5.980;2023-02-28T00:16:52;33.66;31.80;35.37;;
71020;Laerm;58902;51.436;5.980;2023-02-28T00:17:02;35.95;32.16;43.77;;
71020;Laerm;58902;51.436;5.980;2023-02-28T00:17:13;34.60;33.06;36.12;;
71020;Laerm;58902;51.436;5.980;2023-02-28T00:17:26;34.66;31.26;37.78;;
71020;Laerm;58902;51.436;5.980;2023-02-28T00:17:36;30.92;29.71;32.27;;
71020;Laerm;58902;51.436;5.980;2023-02-28T00:17:46;31.50;30.11;33.12;;
71020;Laerm;58902;51.436;5.980;2023-02-28T00:17:57;32.84;30.29;37.16;;
71020;Laerm;58902;51.436;5.980;2023-02-28T00:18:07;33.88;32.16;36.21;;
71020;Laerm;58902;51.436;5.980;2023-02-28T00:18:18;33.43;32.08;35.06;;
71020;Laerm;58902;51.436;5.980;2023-02-28T00:18:28;32.94;30.32;34.96;;
71020;Laerm;58902;51.436;5.980;2023-02-28T00:18:39;32.44;30.46;34.17;;
71020;Laerm;58902;51.436;5.980;2023-02-28T00:18:49;32.64;31.00;34.02;;
71020;Laerm;58902;51.436;5.980;2023-02-28T00:19:00;32.65;30.39;34.42;;
71020;Laerm;58902;51.436;5.980;2023-02-28T00:19:10;32.72;31.07;34.76;;
71020;Laerm;58902;51.436;5.980;2023-02-28T00:19:23;32.42;31.17;33.95;;
71020;Laerm;58902;51.436;5.980;2023-02-28T00:19:33;32.49;29.92;34.30;;
71020;Laerm;58902;51.436;5.980;2023-02-28T00:19:44;32.61;30.87;33.89;;
71020;Laerm;58902;51.436;5.980;2023-02-28T00:19:54;32.81;31.09;35.35;;
71020;Laerm;58902;51.436;5.980;2023-02-28T00:20:04;32.33;30.61;36.12;;
71020;Laerm;58902;51.436;5.980;2023-02-28T00:20:18;31.92;30.33;37.88;;
71020;Laerm;58902;51.436;5.980;2023-02-28T00:20:29;31.93;29.75;33.38;;
71020;Laerm;58902;51.436;5.980;2023-02-28T00:20:39;32.31;30.61;33.53;;
71020;Laerm;58902;51.436;5.980;2023-02-28T00:20:50;31.37;29.57;33.49;;
71020;Laerm;58902;51.436;5.980;2023-02-28T00:21:00;31.83;29.55;33.93;;
71020;Laerm;58902;51.436;5.980;2023-02-28T00:21:11;32.89;31.35;34.24;;
71020;Laerm;58902;51.436;5.980;2023-02-28T00:21:21;31.58;29.90;33.36;;
71020;Laerm;58902;51.436;5.980;2023-02-28T00:21:31;32.47;30.70;35.45;;
71020;Laerm;58902;51.436;5.980;2023-02-28T00:21:42;32.28;30.86;33.75;;
71020;Laerm;58902;51.436;5.980;2023-02-28T00:21:52;32.18;30.77;33.73;;
71020;Laerm;58902;51.436;5.980;2023-02-28T00:22:03;31.89;30.03;34.56;;
71020;Laerm;58902;51.436;5.980;2023-02-28T00:22:14;31.72;30.63;33.38;;
71020;Laerm;58902;51.436;5.980;2023-02-28T00:22:24;32.18;30.58;33.44;;
71020;Laerm;58902;51.436;5.980;2023-02-28T00:22:35;32.59;30.76;36.97;;
71020;Laerm;58902;51.436;5.980;2023-02-28T00:22:46;32.09;30.30;34.14;;
71020;Laerm;58902;51.436;5.980;2023-02-28T00:22:57;32.56;30.52;35.26;;
71020;Laerm;58902;51.436;5.980;2023-02-28T00:23:07;35.51;32.18;37.82;;
71020;Laerm;58902;51.436;5.980;2023-02-28T00:23:18;34.22;32.33;36.71;;
71020;Laerm;58902;51.436;5.980;2023-02-28T00:23:28;33.25;31.64;35.44;;
71020;Laerm;58902;51.436;5.980;2023-02-28T00:23:38;33.35;31.79;34.93;;
71020;Laerm;58902;51.436;5.980;2023-02-28T00:23:49;33.56;31.44;35.15;;
71020;Laerm;58902;51.436;5.980;2023-02-28T00:23:59;34.76;32.63;38.72;;
71020;Laerm;58902;51.436;5.980;2023-02-28T00:24:10;34.16;32.74;35.48;;
71020;Laerm;58902;51.436;5.980;2023-02-28T00:24:20;34.17;32.56;35.80;;
71020;Laerm;58902;51.436;5.980;2023-02-28T00:24:30;34.50;32.74;38.20;;
71020;Laerm;58902;51.436;5.980;2023-02-28T00:24:41;34.42;32.52;36.02;;
71020;Laerm;58902;51.436;5.980;2023-02-28T00:24:51;34.04;32.32;35.71;;
71020;Laerm;58902;51.436;5.980;2023-02-28T00:25:02;34.39;32.34;36.93;;
71020;Laerm;58902;51.436;5.980;2023-02-28T00:25:14;33.65;31.93;35.59;;
71020;Laerm;58902;51.436;5.980;2023-02-28T00:25:25;34.69;33.21;37.62;;
71020;Laerm;58902;51.436;5.980;2023-02-28T00:25:36;31.34;29.02;35.38;;
71020;Laerm;58902;51.436;5.980;2023-02-28T00:25:46;30.20;28.69;31.39;;
71020;Laerm;58902;51.436;5.980;2023-02-28T00:25:57;30.63;29.30;32.07;;
71020;Laerm;58902;51.436;5.980;2023-02-28T00:26:07;32.41;30.49;34.79;;
71020;Laerm;58902;51.436;5.980;2023-02-28T00:26:17;32.42;31.05;33.86;;
71020;Laerm;58902;51.436;5.980;2023-02-28T00:26:28;31.45;30.24;32.93;;
71020;Laerm;58902;51.436;5.980;2023-02-28T00:26:38;31.91;30.66;33.14;;
71020;Laerm;58902;51.436;5.980;2023-02-28T00:26:48;31.88;30.35;34.36;;
71020;Laerm;58902;51.436;5.980;2023-02-28T00:26:59;32.46;30.72;33.63;;
71020;Laerm;58902;51.436;5.980;2023-02-28T00:27:09;32.30;30.19;33.51;;
71020;Laerm;58902;51.436;5.980;2023-02-28T00:27:19;31.89;30.10;33.10;;
71020;Laerm;58902;51.436;5.980;2023-02-28T00:27:30;31.95;30.65;34.03;;
71020;Laerm;58902;51.436;5.980;2023-02-28T00:27:40;31.83;30.01;35.82;;
71020;Laerm;58902;51.436;5.980;2023-02-28T00:27:51;33.16;30.00;35.97;;
71020;Laerm;58902;51.436;5.980;2023-02-28T00:28:02;34.15;32.54;35.77;;
71020;Laerm;58902;51.436;5.980;2023-02-28T00:28:12;33.49;29.62;36.03;;
71020;Laerm;58902;51.436;5.980;2023-02-28T00:28:22;30.59;29.15;32.59;;
71020;Laerm;58902;51.436;5.980;2023-02-28T00:28:33;30.74;29.33;32.44;;
71020;Laerm;58902;51.436;5.980;2023-02-28T00:28:43;31.28;29.87;33.30;;
71020;Laerm;58902;51.436;5.980;2023-02-28T00:28:54;32.40;30.22;45.40;;
71020;Laerm;58902;51.436;5.980;2023-02-28T00:29:04;32.48;31.01;33.87;;
71020;Laerm;58902;51.436;5.980;2023-02-28T00:29:14;32.24;30.84;33.88;;
71020;Laerm;58902;51.436;5.980;2023-02-28T00:29:25;32.27;29.86;33.67;;
71020;Laerm;58902;51.436;5.980;2023-02-28T00:29:35;33.40;32.00;34.23;;
71020;Laerm;58902;51.436;5.980;2023-02-28T00:29:46;32.96;31.92;34.60;;
71020;Laerm;58902;51.436;5.980;2023-02-28T00:29:56;32.26;30.02;42.04;;
71020;Laerm;58902;51.436;5.980;2023-02-28T00:30:08;31.06;29.40;32.55;;
71020;Laerm;58902;51.436;5.980;2023-02-28T00:30:20;31.08;29.61;32.47;;
71020;Laerm;58902;51.436;5.980;2023-02-28T00:30:30;31.61;29.66;33.81;;
71020;Laerm;58902;51.436;5.980;2023-02-28T00:30:41;31.68;29.71;33.55;;
71020;Laerm;58902;51.436;5.980;2023-02-28T00:30:51;31.91;29.59;35.86;;
71020;Laerm;58902;51.436;5.980;2023-02-28T00:31:02;30.91;29.54;33.74;;
71020;Laerm;58902;51.436;5.980;2023-02-28T00:31:12;41.87;30.30;54.68;;
71020;Laerm;58902;51.436;5.980;2023-02-28T00:31:23;32.63;30.50;36.40;;
71020;Laerm;58902;51.436;5.980;2023-02-28T00:31:33;32.93;30.16;35.79;;
71020;Laerm;58902;51.436;5.980;2023-02-28T00:31:43;33.30;30.62;36.64;;
71020;Laerm;58902;51.436;5.980;2023-02-28T00:31:54;35.30;30.84;40.75;;
71020;Laerm;58902;51.436;5.980;2023-02-28T00:32:04;32.52;31.20;34.69;;
71020;Laerm;58902;51.436;5.980;2023-02-28T00:32:15;34.46;30.74;42.34;;
71020;Laerm;58902;51.436;5.980;2023-02-28T00:32:26;36.00;31.67;46.28;;
71020;Laerm;58902;51.436;5.980;2023-02-28T00:32:36;32.14;30.14;35.37;;
71020;Laerm;58902;51.436;5.980;2023-02-28T00:32:46;31.83;30.11;33.80;;
71020;Laerm;58902;51.436;5.980;2023-02-28T00:32:57;31.08;29.90;32.82;;
71020;Laerm;58902;51.436;5.980;2023-02-28T00:33:07;30.99;29.57;32.78;;
71020;Laerm;58902;51.436;5.980;2023-02-28T00:33:18;31.73;29.77;34.24;;
71020;Laerm;58902;51.436;5.980;2023-02-28T00:33:28;34.10;32.53;35.67;;
71020;Laerm;58902;51.436;5.980;2023-02-28T00:33:39;34.12;32.97;35.62;;
71020;Laerm;58902;51.436;5.980;2023-02-28T00:33:49;33.30;30.56;35.41;;
71020;Laerm;58902;51.436;5.980;2023-02-28T00:34:01;36.32;33.21;39.43;;
71020;Laerm;58902;51.436;5.980;2023-02-28T00:34:12;32.15;29.81;34.82;;
71020;Laerm;58902;51.436;5.980;2023-02-28T00:34:22;31.93;29.92;33.65;;
71020;Laerm;58902;51.436;5.980;2023-02-28T00:34:32;32.74;30.99;34.60;;
71020;Laerm;58902;51.436;5.980;2023-02-28T00:34:47;31.66;29.58;34.64;;
71020;Laerm;58902;51.436;5.980;2023-02-28T00:34:58;31.54;29.96;36.28;;
71020;Laerm;58902;51.436;5.980;2023-02-28T00:35:08;31.64;29.87;36.70;;
71020;Laerm;58902;51.436;5.980;2023-02-28T00:35:19;32.21;30.09;35.83;;
71020;Laerm;58902;51.436;5.980;2023-02-28T00:35:29;32.76;30.65;34.13;;
71020;Laerm;58902;51.436;5.980;2023-02-28T00:35:40;32.88;30.62;40.65;;
71020;Laerm;58902;51.436;5.980;2023-02-28T00:35:50;32.23;30.52;37.82;;
71020;Laerm;58902;51.436;5.980;2023-02-28T00:36:05;32.64;31.44;35.84;;
71020;Laerm;58902;51.436;5.980;2023-02-28T00:36:15;32.53;30.75;35.73;;
71020;Laerm;58902;51.436;5.980;2023-02-28T00:36:26;33.74;30.90;39.86;;
71020;Laerm;58902;51.436;5.980;2023-02-28T00:36:36;33.83;32.08;36.39;;
71020;Laerm;58902;51.436;5.980;2023-02-28T00:36:46;32.71;30.82;34.82;;
71020;Laerm;58902;51.436;5.980;2023-02-28T00:37:00;33.62;30.31;40.25;;
71020;Laerm;58902;51.436;5.980;2023-02-28T00:37:11;31.24;29.81;32.86;;
71020;Laerm;58902;51.436;5.980;2023-02-28T00:37:24;31.51;29.15;43.05;;
71020;Laerm;58902;51.436;5.980;2023-02-28T00:37:34;33.53;31.08;36.08;;
71020;Laerm;58902;51.436;5.980;2023-02-28T00:37:45;36.56;34.23;38.22;;
71020;Laerm;58902;51.436;5.980;2023-02-28T00:37:55;36.01;31.07;43.06;;
71020;Laerm;58902;51.436;5.980;2023-02-28T00:38:06;32.01;30.58;37.35;;
71020;Laerm;58902;51.436;5.980;2023-02-28T00:38:16;32.09;30.55;33.45;;
71020;Laerm;58902;51.436;5.980;2023-02-28T00:38:26;32.32;30.59;33.87;;
71020;Laerm;58902;51.436;5.980;2023-02-28T00:38:37;31.58;30.23;33.19;;
71020;Laerm;58902;51.436;5.980;2023-02-28T00:38:48;32.05;30.11;37.84;;
71020;Laerm;58902;51.436;5.980;2023-02-28T00:38:58;31.57;30.11;33.78;;
71020;Laerm;58902;51.436;5.980;2023-02-28T00:39:09;31.52;29.42;35.21;;
71020;Laerm;58902;51.436;5.980;2023-02-28T00:39:19;30.51;29.23;31.78;;
71020;Laerm;58902;51.436;5.980;2023-02-28T00:39:29;32.64;29.36;35.40;;
71020;Laerm;58902;51.436;5.980;2023-02-28T00:39:40;35.37;32.19;37.89;;
71020;Laerm;58902;51.436;5.980;2023-02-28T00:39:50;37.64;36.17;38.67;;
71020;Laerm;58902;51.436;5.980;2023-02-28T00:40:01;33.45;30.51;37.82;;
71020;Laerm;58902;51.436;5.980;2023-02-28T00:40:14;34.09;31.61;35.70;;
71020;Laerm;58902;51.436;5.980;2023-02-28T00:40:25;34.36;32.47;36.10;;
71020;Laerm;58902;51.436;5.980;2023-02-28T00:40:35;34.55;33.29;36.57;;
71020;Laerm;58902;51.436;5.980;2023-02-28T00:40:45;34.61;33.10;38.27;;
71020;Laerm;58902;51.436;5.980;2023-02-28T00:40:56;33.33;30.17;36.11;;
71020;Laerm;58902;51.436;5.980;2023-02-28T00:41:07;32.22;30.95;34.13;;
71020;Laerm;58902;51.436;5.980;2023-02-28T00:41:18;31.63;29.71;36.16;;
71020;Laerm;58902;51.436;5.980;2023-02-28T00:41:28;30.41;29.03;32.36;;
71020;Laerm;58902;51.436;5.980;2023-02-28T00:41:38;30.08;28.96;31.56;;
71020;Laerm;58902;51.436;5.980;2023-02-28T00:41:49;30.11;29.16;31.43;;
71020;Laerm;58902;51.436;5.980;2023-02-28T00:41:59;29.92;28.81;31.78;;
71020;Laerm;58902;51.436;5.980;2023-02-28T00:42:09;30.02;28.77;31.60;;
71020;Laerm;58902;51.436;5.980;2023-02-28T00:42:20;30.08;28.93;31.75;;
71020;Laerm;58902;51.436;5.980;2023-02-28T00:42:30;30.11;28.61;31.92;;
71020;Laerm;58902;51.436;5.980;2023-02-28T00:42:41;30.14;28.83;31.77;;
71020;Laerm;58902;51.436;5.980;2023-02-28T00:42:51;30.77;28.99;33.44;;
71020;Laerm;58902;51.436;5.980;2023-02-28T00:43:01;31.78;30.31;33.92;;
71020;Laerm;58902;51.436;5.980;2023-02-28T00:43:13;32.06;30.89;33.49;;
71020;Laerm;58902;51.436;5.980;2023-02-28T00:43:23;31.23;28.98;33.57;;
71020;Laerm;58902;51.436;5.980;2023-02-28T00:43:34;30.32;29.15;31.94;;
71020;Laerm;58902;51.436;5.980;2023-02-28T00:43:45;30.33;29.10;31.60;;
71020;Laerm;58902;51.436;5.980;2023-02-28T00:43:55;30.76;29.40;32.91;;
71020;Laerm;58902;51.436;5.980;2023-02-28T00:44:05;30.63;29.47;32.01;;
71020;Laerm;58902;51.436;5.980;2023-02-28T00:44:16;30.67;29.52;31.98;;
71020;Laerm;58902;51.436;5.980;2023-02-28T00:44:26;32.16;30.04;34.05;;
71020;Laerm;58902;51.436;5.980;2023-02-28T00:44:37;32.26;30.57;33.59;;
71020;Laerm;58902;51.436;5.980;2023-02-28T00:44:47;32.25;30.11;33.77;;
71020;Laerm;58902;51.436;5.980;2023-02-28T00:44:57;31.71;30.35;34.42;;
71020;Laerm;58902;51.436;5.980;2023-02-28T00:45:08;32.33;30.29;38.42;;
71020;Laerm;58902;51.436;5.980;2023-02-28T00:45:18;32.73;29.95;35.78;;
71020;Laerm;58902;51.436;5.980;2023-02-28T00:45:29;31.35;30.00;33.26;;
71020;Laerm;58902;51.436;5.980;2023-02-28T00:45:39;31.50;30.13;34.74;;
71020;Laerm;58902;51.436;5.980;2023-02-28T00:45:50;31.53;29.59;34.23;;
71020;Laerm;58902;51.436;5.980;2023-02-28T00:46:00;32.40;30.31;34.15;;
71020;Laerm;58902;51.436;5.980;2023-02-28T00:46:11;34.37;31.78;37.02;;
71020;Laerm;58902;51.436;5.980;2023-02-28T00:46:21;36.94;34.21;38.61;;
71020;Laerm;58902;51.436;5.980;2023-02-28T00:46:32;37.65;32.32;42.46;;
71020;Laerm;58902;51.436;5.980;2023-02-28T00:46:42;33.15;31.56;34.43;;
71020;Laerm;58902;51.436;5.980;2023-02-28T00:46:52;33.00;31.38;35.51;;
71020;Laerm;58902;51.436;5.980;2023-02-28T00:47:04;35.42;32.51;37.87;;
71020;Laerm;58902;51.436;5.980;2023-02-28T00:47:14;33.05;30.89;35.83;;
71020;Laerm;58902;51.436;5.980;2023-02-28T00:47:26;33.73;31.00;36.28;;
71020;Laerm;58902;51.436;5.980;2023-02-28T00:47:36;35.03;33.30;37.30;;
71020;Laerm;58902;51.436;5.980;2023-02-28T00:47:46;35.95;33.94;39.51;;
71020;Laerm;58902;51.436;5.980;2023-02-28T00:47:59;34.88;32.72;37.50;;
71020;Laerm;58902;51.436;5.980;2023-02-28T00:48:09;34.22;32.61;36.93;;
71020;Laerm;58902;51.436;5.980;2023-02-28T00:48:20;36.37;32.58;41.30;;
71020;Laerm;58902;51.436;5.980;2023-02-28T00:48:31;38.11;36.33;41.67;;
71020;Laerm;58902;51.436;5.980;2023-02-28T00:48:41;36.36;34.63;38.10;;
71020;Laerm;58902;51.436;5.980;2023-02-28T00:48:52;35.62;32.29;42.77;;
71020;Laerm;58902;51.436;5.980;2023-02-28T00:49:02;32.60;30.45;34.75;;
71020;Laerm;58902;51.436;5.980;2023-02-28T00:49:13;40.92;30.38;44.65;;
71020;Laerm;58902;51.436;5.980;2023-02-28T00:49:23;40.59;35.01;45.40;;
71020;Laerm;58902;51.436;5.980;2023-02-28T00:49:34;36.85;34.21;39.06;;
71020;Laerm;58902;51.436;5.980;2023-02-28T00:49:44;35.36;33.01;39.69;;
71020;Laerm;58902;51.436;5.980;2023-02-28T00:49:54;37.37;34.39;41.60;;
71020;Laerm;58902;51.436;5.980;2023-02-28T00:50:05;36.13;33.49;38.07;;
71020;Laerm;58902;51.436;5.980;2023-02-28T00:50:19;68.95;36.46;75.69;;
71020;Laerm;58902;51.436;5.980;2023-02-28T00:50:30;69.58;42.83;77.81;;
71020;Laerm;58902;51.436;5.980;2023-02-28T00:50:40;42.71;38.14;46.39;;
71020;Laerm;58902;51.436;5.980;2023-02-28T00:50:50;38.43;35.58;41.18;;
71020;Laerm;58902;51.436;5.980;2023-02-28T00:51:01;38.59;35.28;43.56;;
71020;Laerm;58902;51.436;5.980;2023-02-28T00:51:12;37.96;34.60;41.40;;
71020;Laerm;58902;51.436;5.980;2023-02-28T00:51:22;37.86;35.28;40.52;;
71020;Laerm;58902;51.436;5.980;2023-02-28T00:51:32;36.93;33.22;41.72;;
71020;Laerm;58902;51.436;5.980;2023-02-28T00:51:43;37.43;34.34;43.07;;
71020;Laerm;58902;51.436;5.980;2023-02-28T00:51:55;35.04;31.93;37.51;;
71020;Laerm;58902;51.436;5.980;2023-02-28T00:52:06;34.38;31.20;38.48;;
71020;Laerm;58902;51.436;5.980;2023-02-28T00:52:16;32.60;31.10;34.62;;
71020;Laerm;58902;51.436;5.980;2023-02-28T00:52:26;32.91;31.31;36.37;;
71020;Laerm;58902;51.436;5.980;2023-02-28T00:52:37;31.77;30.41;33.18;;
71020;Laerm;58902;51.436;5.980;2023-02-28T00:52:47;32.49;30.12;34.08;;
71020;Laerm;58902;51.436;5.980;2023-02-28T00:52:58;33.06;31.47;34.60;;
71020;Laerm;58902;51.436;5.980;2023-02-28T00:53:08;32.88;31.07;33.95;;
71020;Laerm;58902;51.436;5.980;2023-02-28T00:53:18;32.49;29.98;34.22;;
71020;Laerm;58902;51.436;5.980;2023-02-28T00:53:29;31.15;29.66;33.08;;
71020;Laerm;58902;51.436;5.980;2023-02-28T00:53:39;30.72;29.63;32.19;;
71020;Laerm;58902;51.436;5.980;2023-02-28T00:53:50;31.02;29.27;33.45;;
71020;Laerm;58902;51.436;5.980;2023-02-28T00:54:00;30.58;29.09;33.30;;
71020;Laerm;58902;51.436;5.980;2023-02-28T00:54:10;30.33;29.08;31.95;;
71020;Laerm;58902;51.436;5.980;2023-02-28T00:54:21;30.58;29.23;40.21;;
71020;Laerm;58902;51.436;5.980;2023-02-28T00:54:32;31.02;29.41;37.38;;
71020;Laerm;58902;51.436;5.980;2023-02-28T00:54:42;34.89;29.25;42.37;;
71020;Laerm;58902;51.436;5.980;2023-02-28T00:54:53;41.38;37.53;45.29;;
71020;Laerm;58902;51.436;5.980;2023-02-28T00:55:04;36.14;33.27;42.76;;
71020;Laerm;58902;51.436;5.980;2023-02-28T00:55:14;35.54;32.46;37.58;;
71020;Laerm;58902;51.436;5.980;2023-02-28T00:55:25;36.21;33.52;38.03;;
71020;Laerm;58902;51.436;5.980;2023-02-28T00:55:35;36.06;33.40;38.22;;
71020;Laerm;58902;51.436;5.980;2023-02-28T00:55:45;36.47;34.42;38.33;;
71020;Laerm;58902;51.436;5.980;2023-02-28T00:55:56;35.74;32.53;38.08;;
71020;Laerm;58902;51.436;5.980;2023-02-28T00:56:06;35.64;32.16;38.23;;
71020;Laerm;58902;51.436;5.980;2023-02-28T00:56:16;35.22;32.69;37.61;;
71020;Laerm;58902;51.436;5.980;2023-02-28T00:56:27;36.40;34.03;38.77;;
71020;Laerm;58902;51.436;5.980;2023-02-28T00:56:37;36.85;34.30;38.53;;
71020;Laerm;58902;51.436;5.980;2023-02-28T00:56:48;58.52;35.83;68.33;;
71020;Laerm;58902;51.436;5.980;2023-02-28T00:56:58;60.78;38.89;67.88;;
71020;Laerm;58902;51.436;5.980;2023-02-28T00:57:09;38.25;34.74;41.45;;
71020;Laerm;58902;51.436;5.980;2023-02-28T00:57:19;35.81;34.17;37.82;;
71020;Laerm;58902;51.436;5.980;2023-02-28T00:57:30;37.72;35.34;40.89;;
71020;Laerm;58902;51.436;5.980;2023-02-28T00:57:40;74.12;40.07;80.82;;
71020;Laerm;58902;51.436;5.980;2023-02-28T00:57:51;74.67;54.52;80.12;;
71020;Laerm;58902;51.436;5.980;2023-02-28T00:58:01;50.70;43.91;58.62;;
71020;Laerm;58902;51.436;5.980;2023-02-28T00:58:12;42.98;39.57;47.45;;
71020;Laerm;58902;51.436;5.980;2023-02-28T00:58:22;42.25;39.60;45.63;;
71020;Laerm;58902;51.436;5.980;2023-02-28T00:58:32;40.59;37.39;43.79;;
71020;Laerm;58902;51.436;5.980;2023-02-28T00:58:43;40.29;37.41;43.16;;
71020;Laerm;58902;51.436;5.980;2023-02-28T00:58:53;39.67;35.41;43.61;;
71020;Laerm;58902;51.436;5.980;2023-02-28T00:59:03;37.63;34.59;41.46;;
71020;Laerm;58902;51.436;5.980;2023-02-28T00:59:14;36.39;34.17;38.92;;
71020;Laerm;58902;51.436;5.980;2023-02-28T00:59:25;34.18;31.48;36.96;;
71020;Laerm;58902;51.436;5.980;2023-02-28T00:59:35;33.12;31.78;34.51;;
71020;Laerm;58902;51.436;5.980;2023-02-28T00:59:45;33.27;31.30;35.68;;
71020;Laerm;58902;51.436;5.980;2023-02-28T00:59:56;32.52;31.00;35.93;;
71020;Laerm;58902;51.436;5.980;2023-02-28T01:00:06;40.83;30.35;55.03;;